North Corners, Georgia
Current Conditions -  °F | °C
As of 7:53 PM on Sunday 23 Nov 2014 (Local Time) from KVPC Reporting Station
Scattered Clouds Scattered Clouds  
Wind Chill: 58°   Ceiling: Unl
Heat Index: 58°   Visibility: 10mi
Dew Point: 55°   Wind: 5mph
Humidity: 90%   Direction: 140°SE
Pressure: 29.67"   Gusts: NA
Location:  34.1498°N, 84.8279°W
Report Text: KVPC 240053Z AUTO 14004KT 10SM SCT043 14/13 A2967 RMK AO2 SLP042 T01440128
Loading
Personal Weather Stations






























Interactive Weather Map New forecast layout! Learn more

10-Day Weather Forecast

Advertisements
Track Severe Weather on mobile